createdAt,value
2019-03-09T00:01:20.544Z,87.22
2019-03-09T00:03:46.799Z,87.39
2019-03-09T00:06:13.620Z,87.32
2019-03-09T00:08:41.168Z,87.52
2019-03-09T00:11:07.420Z,87.34
2019-03-09T00:13:33.655Z,87.50
2019-03-09T00:15:59.896Z,88.19
2019-03-09T00:18:26.128Z,87.69
2019-03-09T00:20:52.371Z,87.28
2019-03-09T00:23:38.557Z,86.46
2019-03-09T00:26:24.561Z,87.52
2019-03-09T00:29:10.547Z,86.91
2019-03-09T00:31:56.552Z,86.94
2019-03-09T00:34:22.776Z,87.23
2019-03-09T00:36:49.019Z,87.07
2019-03-09T00:39:15.253Z,87.37
2019-03-09T00:41:41.500Z,87.45
2019-03-09T00:44:07.734Z,87.91
2019-03-09T00:46:33.968Z,87.29
2019-03-09T00:49:00.218Z,87.83
2019-03-09T00:51:26.447Z,87.24
2019-03-09T00:53:54.596Z,87.90
2019-03-09T00:56:20.830Z,88.17
2019-03-09T00:58:47.063Z,88.17
2019-03-09T01:01:13.296Z,87.78
2019-03-09T01:03:39.527Z,87.86
2019-03-09T01:06:05.757Z,87.86
2019-03-09T01:08:31.997Z,88.33
2019-03-09T01:10:58.222Z,88.37
2019-03-09T01:13:24.477Z,87.69
2019-03-09T01:15:50.702Z,87.91
2019-03-09T01:18:16.938Z,88.23
2019-03-09T01:20:43.163Z,88.07
2019-03-09T01:23:09.399Z,87.81
2019-03-09T01:25:35.624Z,88.01
2019-03-09T01:28:01.864Z,88.69
2019-03-09T01:30:28.093Z,88.77
2019-03-09T01:32:54.331Z,89.03
2019-03-09T01:35:20.576Z,88.03
2019-03-09T01:37:46.804Z,88.33
2019-03-09T01:40:54.348Z,88.38
2019-03-09T01:43:20.594Z,88.56
2019-03-09T01:45:46.818Z,88.04
2019-03-09T01:48:13.084Z,88.38
2019-03-09T01:50:39.300Z,88.91
2019-03-09T01:53:25.284Z,88.32
2019-03-09T01:55:51.527Z,88.39
2019-03-09T01:58:17.763Z,88.42
2019-03-09T02:00:43.992Z,87.61
2019-03-09T02:03:10.231Z,88.13
2019-03-09T02:05:36.471Z,88.54
2019-03-09T02:08:02.806Z,88.51
2019-03-09T02:10:29.035Z,88.32
2019-03-09T02:12:55.266Z,88.41
2019-03-09T02:15:21.510Z,89.28
2019-03-09T02:17:47.736Z,88.73
2019-03-09T02:20:55.284Z,88.18
2019-03-09T02:23:21.523Z,88.40
2019-03-09T02:25:47.772Z,88.83
2019-03-09T02:28:14.004Z,88.78
2019-03-09T02:30:40.265Z,88.83
2019-03-09T02:36:00.084Z,89.01
2019-03-09T02:38:46.074Z,89.28
2019-03-09T02:41:12.320Z,89.52
2019-03-09T02:43:38.554Z,89.34
2019-03-09T02:46:04.793Z,89.20
2019-03-09T02:48:31.099Z,89.08
2019-03-09T02:50:57.434Z,88.76
2019-03-09T02:56:37.513Z,89.40
2019-03-09T02:59:03.736Z,89.27
2019-03-09T03:04:03.668Z,89.44
2019-03-09T03:06:29.903Z,89.16
2019-03-09T03:08:56.136Z,88.89
2019-03-09T03:11:22.375Z,88.83
2019-03-09T03:13:48.597Z,89.62
2019-03-09T03:16:14.836Z,89.21
2019-03-09T03:18:41.064Z,88.80
2019-03-09T03:21:07.305Z,88.76
2019-03-09T03:23:33.524Z,89.31
2019-03-09T03:25:59.768Z,89.51
2019-03-09T03:28:25.997Z,89.76
2019-03-09T03:30:52.250Z,89.83
2019-03-09T03:33:18.476Z,89.64
2019-03-09T03:35:44.711Z,89.92
2019-03-09T03:38:10.954Z,89.88
2019-03-09T03:40:37.180Z,89.81
2019-03-09T03:43:03.418Z,89.96
2019-03-09T03:45:29.645Z,89.96
2019-03-09T03:47:55.903Z,90.36
2019-03-09T03:50:22.144Z,90.27
2019-03-09T03:52:48.368Z,90.33
2019-03-09T03:55:14.598Z,90.48
2019-03-09T03:57:40.841Z,90.61
2019-03-09T04:03:20.352Z,90.47
2019-03-09T04:06:27.890Z,90.41
2019-03-09T04:09:35.471Z,90.35
2019-03-09T04:12:01.682Z,90.69
2019-03-09T04:14:27.905Z,90.90
2019-03-09T04:16:54.143Z,90.97
2019-03-09T04:19:20.373Z,90.75
2019-03-09T04:21:46.595Z,90.59
2019-03-09T04:24:12.832Z,90.61
2019-03-09T04:26:39.060Z,90.63
2019-03-09T04:29:05.406Z,90.70
2019-03-09T04:31:31.627Z,90.78
2019-03-09T04:34:10.557Z,91.02
2019-03-09T04:36:36.826Z,91.14
2019-03-09T04:39:44.361Z,90.87
2019-03-09T04:42:10.576Z,90.94
2019-03-09T04:44:36.820Z,91.38
2019-03-09T04:47:03.044Z,91.24
2019-03-09T04:49:29.289Z,91.22
2019-03-09T04:51:55.518Z,91.23
2019-03-09T04:54:21.760Z,91.34
2019-03-09T04:56:47.984Z,91.36
2019-03-09T04:59:14.227Z,91.43
2019-03-09T05:01:40.452Z,91.56
2019-03-09T05:04:46.236Z,91.44
2019-03-09T05:10:47.607Z,91.38
2019-03-09T05:13:55.157Z,91.08
2019-03-09T05:16:21.397Z,91.17
2019-03-09T05:18:47.620Z,91.04
2019-03-09T05:21:13.861Z,90.94
2019-03-09T05:23:40.088Z,91.23
2019-03-09T05:26:06.333Z,91.26
2019-03-09T05:28:32.556Z,91.51
2019-03-09T05:30:58.817Z,91.42
2019-03-09T05:33:25.032Z,91.39
2019-03-09T05:35:51.273Z,91.32
2019-03-09T05:38:17.515Z,91.23
2019-03-09T05:40:43.755Z,90.68
2019-03-09T05:43:09.977Z,90.76
2019-03-09T05:45:36.211Z,90.91
2019-03-09T05:48:02.473Z,90.99
2019-03-09T05:50:28.683Z,90.93
2019-03-09T05:53:15.659Z,90.73
2019-03-09T05:55:42.067Z,91.51
2019-03-09T05:58:08.330Z,91.39
2019-03-09T06:03:08.607Z,91.06
2019-03-09T06:05:54.599Z,90.95
2019-03-09T06:08:20.823Z,91.10
2019-03-09T06:10:47.067Z,90.98
2019-03-09T06:13:13.307Z,90.87
2019-03-09T06:15:39.535Z,91.16
2019-03-09T06:18:06.552Z,91.34
2019-03-09T06:20:33.951Z,90.54
2019-03-09T06:23:00.204Z,90.65
2019-03-09T06:25:26.459Z,90.50
2019-03-09T06:27:52.671Z,90.74
2019-03-09T06:30:18.904Z,90.47
2019-03-09T06:33:24.643Z,90.02
2019-03-09T06:42:31.366Z,90.29
2019-03-09T06:44:57.601Z,89.43
2019-03-09T06:47:23.843Z,88.62
2019-03-09T06:49:50.074Z,88.92
2019-03-09T06:52:16.300Z,88.44
2019-03-09T06:54:42.540Z,88.01
2019-03-09T06:57:13.963Z,87.59
2019-03-09T06:59:36.935Z,86.45
2019-03-09T07:02:03.163Z,86.46
2019-03-09T07:04:29.404Z,87.22
2019-03-09T07:06:55.640Z,86.37
2019-03-09T07:09:21.878Z,85.97
2019-03-09T07:11:48.108Z,86.02
2019-03-09T07:14:53.851Z,83.15
2019-03-09T07:17:20.071Z,84.61
2019-03-09T07:19:46.314Z,83.66
2019-03-09T07:22:12.544Z,81.51
2019-03-09T07:24:38.792Z,82.87
2019-03-09T07:27:05.020Z,80.43
2019-03-09T07:29:31.260Z,80.21
2019-03-09T07:31:57.494Z,80.93
2019-03-09T07:37:24.355Z,80.02
2019-03-09T07:39:50.606Z,79.32
2019-03-09T07:42:16.840Z,80.87
2019-03-09T07:44:43.087Z,79.60
2019-03-09T07:47:09.316Z,79.44
2019-03-09T07:49:35.567Z,79.71
2019-03-09T07:58:15.564Z,79.14
2019-03-09T08:00:41.808Z,78.58
2019-03-09T08:03:08.035Z,77.63
2019-03-09T08:05:34.280Z,76.85
2019-03-09T08:08:00.515Z,76.70
2019-03-09T08:11:08.073Z,77.47
2019-03-09T08:13:34.304Z,76.63
2019-03-09T08:16:00.548Z,75.06
2019-03-09T08:18:26.779Z,76.66
2019-03-09T08:20:53.022Z,75.88
2019-03-09T08:23:19.254Z,76.79
2019-03-09T08:25:45.495Z,76.85
2019-03-09T08:28:11.731Z,76.20
2019-03-09T08:30:37.949Z,75.63
2019-03-09T08:33:04.180Z,76.73
2019-03-09T08:35:30.416Z,74.97
2019-03-09T08:37:56.652Z,75.18
2019-03-09T08:40:22.917Z,74.94
2019-03-09T08:42:49.099Z,75.16
2019-03-09T08:45:56.649Z,75.27
2019-03-09T08:48:22.889Z,73.71
2019-03-09T08:50:49.127Z,73.87
2019-03-09T08:53:15.394Z,75.24
2019-03-09T08:55:41.599Z,72.17
2019-03-09T08:58:07.821Z,74.83
2019-03-09T09:01:15.384Z,73.41
2019-03-09T09:03:41.600Z,74.00
2019-03-09T09:06:07.848Z,74.31
2019-03-09T09:08:34.069Z,74.49
2019-03-09T09:11:00.315Z,73.71
2019-03-09T09:13:26.540Z,73.11
2019-03-09T09:15:52.781Z,73.83
2019-03-09T09:18:19.003Z,71.29
2019-03-09T09:20:45.252Z,72.73
2019-03-09T09:23:11.477Z,72.51
2019-03-09T09:25:37.701Z,72.14
2019-03-09T09:28:03.949Z,69.57
2019-03-09T09:30:30.167Z,70.27
2019-03-09T09:32:56.404Z,72.31
2019-03-09T09:35:22.620Z,70.37
2019-03-09T09:40:42.925Z,71.49
2019-03-09T09:43:09.262Z,68.81
2019-03-09T09:45:35.483Z,71.19
2019-03-09T09:48:01.744Z,70.46
2019-03-09T09:50:27.976Z,70.30
2019-03-09T09:52:54.211Z,69.85
2019-03-09T09:55:20.433Z,67.84
2019-03-09T09:57:46.670Z,69.90
2019-03-09T10:03:27.028Z,68.93
2019-03-09T10:05:53.231Z,66.18
2019-03-09T10:08:19.470Z,69.21
2019-03-09T10:10:45.692Z,66.54
2019-03-09T10:13:11.935Z,66.30
2019-03-09T10:15:39.491Z,63.83
2019-03-09T10:18:06.311Z,65.41
2019-03-09T10:20:32.550Z,66.29
2019-03-09T10:23:04.274Z,66.08
2019-03-09T10:25:26.920Z,67.56
2019-03-09T10:27:53.159Z,64.63
2019-03-09T10:30:39.132Z,65.71
2019-03-09T10:33:05.373Z,67.32
2019-03-09T10:35:31.611Z,65.20
2019-03-09T10:37:57.836Z,69.34
2019-03-09T10:40:24.070Z,68.38
2019-03-09T10:42:50.287Z,69.77
2019-03-09T10:45:57.832Z,63.67
2019-03-09T10:48:24.077Z,68.54
2019-03-09T10:50:50.328Z,68.09
2019-03-09T10:53:16.563Z,67.81
2019-03-09T10:55:42.841Z,65.29
2019-03-09T10:58:09.030Z,68.40
2019-03-09T11:01:16.578Z,68.36
2019-03-09T11:03:42.818Z,68.82
2019-03-09T11:06:09.052Z,67.15
2019-03-09T11:08:35.274Z,69.74
2019-03-09T11:11:01.511Z,69.42
2019-03-09T11:13:27.732Z,66.03
2019-03-09T11:15:53.967Z,68.42
2019-03-09T11:18:20.190Z,67.21
2019-03-09T11:20:46.427Z,67.16
2019-03-09T11:23:12.660Z,67.51
2019-03-09T11:25:38.894Z,66.62
2019-03-09T11:28:46.459Z,63.87
2019-03-09T11:31:12.684Z,65.79
2019-03-09T11:33:38.907Z,67.08
2019-03-09T11:36:05.147Z,67.19
2019-03-09T11:38:31.375Z,63.70
2019-03-09T11:41:00.625Z,68.05
2019-03-09T11:43:25.741Z,67.14
2019-03-09T11:45:51.977Z,68.06
2019-03-09T11:48:18.245Z,69.12
2019-03-09T11:50:44.455Z,69.68
2019-03-09T11:53:10.685Z,66.54
2019-03-09T11:55:36.919Z,68.84
2019-03-09T11:58:03.239Z,67.51
2019-03-09T12:03:03.486Z,68.56
2019-03-09T12:05:29.723Z,69.33
2019-03-09T12:07:55.953Z,68.69
2019-03-09T12:10:22.192Z,69.61
2019-03-09T12:12:48.427Z,68.65
2019-03-09T12:18:15.046Z,67.50
2019-03-09T12:20:41.285Z,65.44
2019-03-09T12:23:27.267Z,66.57
2019-03-09T12:25:53.511Z,68.92
2019-03-09T12:28:19.731Z,70.09
2019-03-09T12:30:45.956Z,69.43
2019-03-09T12:33:12.196Z,69.93
2019-03-09T12:35:38.419Z,69.71
2019-03-09T12:38:04.707Z,69.61
2019-03-09T12:40:30.932Z,70.80
2019-03-09T12:42:57.161Z,71.74
2019-03-09T12:45:23.392Z,71.88
2019-03-09T12:47:49.627Z,72.22
2019-03-09T12:50:35.633Z,71.61
2019-03-09T12:53:01.888Z,70.92
2019-03-09T12:55:28.101Z,68.21
2019-03-09T12:57:54.356Z,69.80
2019-03-09T13:03:34.427Z,69.03
2019-03-09T13:06:00.655Z,69.26
2019-03-09T13:08:26.891Z,70.90
2019-03-09T13:10:53.136Z,72.08
2019-03-09T13:13:19.367Z,72.25
2019-03-09T13:15:45.586Z,72.80
2019-03-09T13:18:11.829Z,72.77
2019-03-09T13:20:38.044Z,71.46
2019-03-09T13:23:04.279Z,71.40
2019-03-09T13:25:30.505Z,70.58
2019-03-09T13:27:56.836Z,71.00
2019-03-09T13:30:23.063Z,70.48
2019-03-09T13:32:49.306Z,71.49
2019-03-09T13:35:15.532Z,72.03
2019-03-09T13:37:41.777Z,72.34
2019-03-09T13:40:49.306Z,72.13
2019-03-09T13:43:15.553Z,72.39
2019-03-09T13:45:41.785Z,72.07
2019-03-09T13:48:08.044Z,72.99
2019-03-09T13:50:34.269Z,70.55
2019-03-09T13:53:00.511Z,70.29
2019-03-09T13:55:26.739Z,71.10
2019-03-09T13:57:52.985Z,70.24
2019-03-09T14:00:19.210Z,70.12
2019-03-09T14:02:45.451Z,69.40
2019-03-09T14:05:11.803Z,71.27
2019-03-09T14:07:38.012Z,70.35
2019-03-09T14:10:45.557Z,69.36
2019-03-09T14:13:11.787Z,70.84
2019-03-09T14:15:38.032Z,69.43
2019-03-09T14:18:04.257Z,70.53
2019-03-09T14:20:30.493Z,69.49
2019-03-09T14:22:56.716Z,69.24
2019-03-09T14:25:22.963Z,70.64
2019-03-09T14:27:49.190Z,71.02
2019-03-09T14:30:56.737Z,70.03
2019-03-09T14:33:22.961Z,70.47
2019-03-09T14:35:49.202Z,69.77
2019-03-09T14:38:15.428Z,70.24
2019-03-09T14:40:41.671Z,69.34
2019-03-09T14:43:07.901Z,68.95
2019-03-09T14:45:34.141Z,70.10
2019-03-09T14:48:00.372Z,70.04
2019-03-09T14:50:26.628Z,69.26
2019-03-09T14:52:52.860Z,69.79
2019-03-09T14:55:19.109Z,71.39
2019-03-09T14:57:45.335Z,70.12
2019-03-09T15:00:52.875Z,70.89
2019-03-09T15:03:19.101Z,73.10
2019-03-09T15:05:45.340Z,73.41
2019-03-09T15:08:11.567Z,73.89
2019-03-09T15:10:37.808Z,73.56
2019-03-09T15:13:04.035Z,74.16
2019-03-09T15:15:30.266Z,73.96
2019-03-09T15:17:56.507Z,73.69
2019-03-09T15:20:22.734Z,73.01
2019-03-09T15:22:48.981Z,73.08
2019-03-09T15:25:56.518Z,74.45
2019-03-09T15:28:22.751Z,75.01
2019-03-09T15:30:48.983Z,73.19
2019-03-09T15:33:15.219Z,74.33
2019-03-09T15:35:41.448Z,75.19
2019-03-09T15:38:07.686Z,76.00
2019-03-09T15:40:33.911Z,75.99
2019-03-09T15:43:00.153Z,75.87
2019-03-09T15:45:26.378Z,76.06
2019-03-09T15:47:52.623Z,76.44
2019-03-09T15:53:19.830Z,76.65
2019-03-09T15:55:46.056Z,77.41
2019-03-09T15:58:12.295Z,77.08
2019-03-09T16:00:38.532Z,77.49
2019-03-09T16:03:04.767Z,77.70
2019-03-09T16:05:30.996Z,78.26
2019-03-09T16:07:57.231Z,78.42
2019-03-09T16:10:23.473Z,78.79
2019-03-09T16:12:49.705Z,78.92
2019-03-09T16:15:57.220Z,78.83
2019-03-09T16:18:23.471Z,79.29
2019-03-09T16:20:49.711Z,79.30
2019-03-09T16:23:15.960Z,79.23
2019-03-09T16:25:42.188Z,79.84
2019-03-09T16:28:08.433Z,80.03
2019-03-09T16:30:34.684Z,80.23
2019-03-09T16:33:00.918Z,80.09
2019-03-09T16:35:27.140Z,80.06
2019-03-09T16:37:53.388Z,80.22
2019-03-09T16:43:33.068Z,80.70
2019-03-09T16:45:59.295Z,80.66
2019-03-09T16:48:25.555Z,80.65
2019-03-09T16:50:51.795Z,80.77
2019-03-09T16:53:18.044Z,81.23
2019-03-09T16:55:44.281Z,81.19
2019-03-09T16:58:10.549Z,81.66
2019-03-09T17:00:36.753Z,82.20
2019-03-09T17:03:02.984Z,81.73
2019-03-09T17:05:29.224Z,82.30
2019-03-09T17:07:55.446Z,81.85
2019-03-09T17:10:21.694Z,82.40
2019-03-09T17:12:47.924Z,81.80
2019-03-09T17:15:33.913Z,82.82
2019-03-09T17:18:00.156Z,82.08
2019-03-09T17:20:26.402Z,82.03
2019-03-09T17:22:52.636Z,82.97
2019-03-09T17:25:18.900Z,82.50
2019-03-09T17:27:45.117Z,82.03
2019-03-09T17:30:52.669Z,83.45
2019-03-09T17:33:18.903Z,83.54
2019-03-09T17:35:45.167Z,83.22
2019-03-09T17:38:11.406Z,82.94
2019-03-09T17:40:37.652Z,82.99
2019-03-09T17:43:03.884Z,82.61
2019-03-09T17:45:30.131Z,83.05
2019-03-09T17:47:56.367Z,83.45
2019-03-09T17:50:22.625Z,83.31
2019-03-09T17:52:48.855Z,82.70
2019-03-09T17:55:15.099Z,83.56
2019-03-09T17:57:41.325Z,83.75
2019-03-09T18:00:48.865Z,83.82
2019-03-09T18:03:15.106Z,83.72
2019-03-09T18:05:41.357Z,84.23
2019-03-09T18:08:07.588Z,84.46
2019-03-09T18:11:15.147Z,84.01
2019-03-09T18:13:41.392Z,83.50
2019-03-09T18:16:07.641Z,84.82
2019-03-09T18:18:33.881Z,84.97
2019-03-09T18:21:00.139Z,84.50
2019-03-09T18:23:26.378Z,84.67
2019-03-09T18:25:52.631Z,84.69
2019-03-09T18:28:18.880Z,85.06
2019-03-09T18:30:45.112Z,85.42
2019-03-09T18:33:11.355Z,85.20
2019-03-09T18:35:37.585Z,84.83
2019-03-09T18:38:03.832Z,85.35
2019-03-09T18:40:30.094Z,85.57
2019-03-09T18:42:56.339Z,85.11
2019-03-09T18:46:03.863Z,85.54
2019-03-09T18:48:30.139Z,85.77
2019-03-09T18:50:56.388Z,85.94
2019-03-09T18:53:22.633Z,85.12
2019-03-09T18:55:58.618Z,85.45
2019-03-09T18:58:17.031Z,85.08
2019-03-09T19:00:43.263Z,85.68
2019-03-09T19:03:09.508Z,85.36
2019-03-09T19:05:35.746Z,85.62
2019-03-09T19:08:01.987Z,85.94
2019-03-09T19:10:28.220Z,86.90
2019-03-09T19:12:54.468Z,86.22
2019-03-09T19:15:20.727Z,86.37
2019-03-09T19:17:46.941Z,86.61
2019-03-09T19:20:32.919Z,86.30
2019-03-09T19:22:59.169Z,86.39
2019-03-09T19:25:25.404Z,86.54
2019-03-09T19:27:51.682Z,86.86
2019-03-09T19:30:37.622Z,86.38
2019-03-09T19:33:03.871Z,87.67
2019-03-09T19:35:30.113Z,87.66
2019-03-09T19:37:56.359Z,88.05
2019-03-09T19:40:22.597Z,86.91
2019-03-09T19:42:48.828Z,87.42
2019-03-09T19:45:22.378Z,88.12
2019-03-09T19:47:48.611Z,86.98
2019-03-09T19:50:34.609Z,87.41
2019-03-09T19:53:00.849Z,87.76
2019-03-09T19:55:27.093Z,87.56
2019-03-09T19:57:53.335Z,87.88
2019-03-09T20:01:00.887Z,88.20
2019-03-09T20:03:27.135Z,87.55
2019-03-09T20:05:53.375Z,87.93
2019-03-09T20:08:19.605Z,87.61
2019-03-09T20:10:45.860Z,86.88
2019-03-09T20:13:12.087Z,87.88
2019-03-09T20:15:38.333Z,87.58
2019-03-09T20:18:04.562Z,88.08
2019-03-09T20:20:30.814Z,88.05
2019-03-09T20:22:57.048Z,87.49
2019-03-09T20:25:23.283Z,87.79
2019-03-09T20:27:49.520Z,87.55
2019-03-09T20:30:57.104Z,87.79
2019-03-09T20:33:23.335Z,87.76
2019-03-09T20:35:49.571Z,88.61
2019-03-09T20:38:15.818Z,89.25
2019-03-09T20:40:42.080Z,88.20
2019-03-09T20:43:08.355Z,88.92
2019-03-09T20:45:34.600Z,89.14
2019-03-09T20:48:00.830Z,89.20
2019-03-09T20:50:27.087Z,88.91
2019-03-09T20:52:53.318Z,89.03
2019-03-09T20:55:19.570Z,88.36
2019-03-09T20:57:45.799Z,88.32
2019-03-09T21:00:53.353Z,87.87
2019-03-09T21:03:19.593Z,87.55
2019-03-09T21:05:45.846Z,88.48
2019-03-09T21:08:12.078Z,87.89
2019-03-09T21:10:38.324Z,87.70
2019-03-09T21:13:45.873Z,88.28
2019-03-09T21:16:12.108Z,87.96
2019-03-09T21:18:38.355Z,88.25
2019-03-09T21:21:04.590Z,88.67
2019-03-09T21:23:30.830Z,88.60
2019-03-09T21:25:57.075Z,88.90
2019-03-09T21:28:23.312Z,88.39
2019-03-09T21:30:49.554Z,87.81
2019-03-09T21:33:15.791Z,88.10
2019-03-09T21:35:42.046Z,88.09
2019-03-09T21:38:08.282Z,88.42
2019-03-09T21:40:34.528Z,88.73
2019-03-09T21:43:00.756Z,88.14
2019-03-09T21:45:27.084Z,88.24
2019-03-09T21:47:53.340Z,88.28
2019-03-09T21:50:19.673Z,88.57
2019-03-09T21:52:45.921Z,88.31
2019-03-09T21:58:26.131Z,88.55
2019-03-09T22:00:52.377Z,88.73
2019-03-09T22:03:18.611Z,88.39
2019-03-09T22:05:44.855Z,88.47
2019-03-09T22:08:11.106Z,88.85
2019-03-09T22:10:37.427Z,88.34
2019-03-09T22:13:03.677Z,88.10
2019-03-09T22:15:29.910Z,88.57
2019-03-09T22:17:56.172Z,89.07
2019-03-09T22:20:22.409Z,88.99
2019-03-09T22:22:48.653Z,88.83
2019-03-09T22:28:28.888Z,88.10
2019-03-09T22:30:55.119Z,88.27
2019-03-09T22:33:21.367Z,87.97
2019-03-09T22:35:47.599Z,88.12
2019-03-09T22:38:15.124Z,88.25
2019-03-09T22:40:41.979Z,87.55
2019-03-09T22:43:08.226Z,87.58
2019-03-09T22:45:34.463Z,87.65
2019-03-09T22:48:00.708Z,88.53
2019-03-09T22:50:26.953Z,88.44
2019-03-09T22:52:53.202Z,88.16
2019-03-09T22:55:19.440Z,88.36
2019-03-09T22:57:45.679Z,88.12
2019-03-09T23:00:32.162Z,88.25
2019-03-09T23:02:58.412Z,88.79
2019-03-09T23:05:24.659Z,88.33
2019-03-09T23:07:50.895Z,88.50
2019-03-09T23:10:58.440Z,89.81
2019-03-09T23:13:24.686Z,89.48
2019-03-09T23:15:50.927Z,88.73
2019-03-09T23:18:17.167Z,89.11
2019-03-09T23:20:43.407Z,88.67
2019-03-09T23:23:09.652Z,89.02
2019-03-09T23:25:35.882Z,88.90
2019-03-09T23:28:02.128Z,88.89
2019-03-09T23:30:28.355Z,88.77
2019-03-09T23:32:54.588Z,88.81
2019-03-09T23:35:20.829Z,88.40
2019-03-09T23:37:47.055Z,88.94
2019-03-09T23:40:54.608Z,88.79
2019-03-09T23:43:20.855Z,89.01
2019-03-09T23:45:47.083Z,89.53
2019-03-09T23:48:13.311Z,88.87
2019-03-09T23:50:39.561Z,88.68
2019-03-09T23:53:05.789Z,89.01
2019-03-09T23:55:32.027Z,89.34
2019-03-09T23:57:58.362Z,88.78
